Time;durP1;ratioP1;P1;durP2;ratioP2;P2;SDS_P1;SDS_P2;PMS_P1;PMS_P2;Temp;Humidity;BMP_temperature;BMP_pressure;BME280_temperature;BME280_humidity;BME280_pressure;Samples;Min_cycle;Max_cycle;Signal;HPM_P1;HPM_P2
2023/08/11 00:00:08;;;;;;;;;7.00;7.00;;;;;19.46;66.40;102011.00;5008597;28;8900;-67
2023/08/11 00:02:38;;;;;;;;;12.67;12.67;;;;;19.44;66.45;102013.94;5005304;28;8835;-67
2023/08/11 00:05:05;;;;;;;;;8.00;7.25;;;;;19.41;66.49;102003.50;5008763;28;8843;-67
2023/08/11 00:07:32;;;;;;;;;11.25;7.75;;;;;19.41;66.61;102010.84;5005893;28;8847;-67
2023/08/11 00:09:58;;;;;;;;;11.00;10.25;;;;;19.40;66.81;102017.34;5003662;28;8905;-67
2023/08/11 00:12:25;;;;;;;;;8.75;8.25;;;;;19.37;66.76;102010.47;5006533;28;8937;-67
2023/08/11 00:14:52;;;;;;;;;8.00;7.25;;;;;19.36;66.89;102007.94;5013644;28;8835;-67
2023/08/11 00:17:19;;;;;;;;;12.25;10.25;;;;;19.34;66.88;102012.81;5023286;28;8863;-67
2023/08/11 00:19:46;;;;;;;;;6.75;6.75;;;;;19.32;67.06;102009.44;5007868;28;8873;-68
2023/08/11 00:22:12;;;;;;;;;11.50;7.75;;;;;19.30;66.69;102003.38;5008506;28;8861;-67
2023/08/11 00:24:39;;;;;;;;;7.25;7.25;;;;;19.29;67.14;102013.47;5003402;28;8877;-67
2023/08/11 00:27:06;;;;;;;;;8.00;8.00;;;;;19.28;67.13;102003.59;5008325;28;8863;-66
2023/08/11 00:29:34;;;;;;;;;8.75;8.75;;;;;19.29;66.97;102009.91;5011809;28;9039;-67
2023/08/11 00:32:00;;;;;;;;;9.50;8.00;;;;;19.31;67.11;102018.69;5006489;28;8867;-68
2023/08/11 00:34:27;;;;;;;;;10.75;8.75;;;;;19.30;66.90;102014.31;5023611;28;8827;-68
2023/08/11 00:36:55;;;;;;;;;8.00;8.00;;;;;19.29;66.90;102012.66;5011138;28;8870;-67
2023/08/11 00:39:22;;;;;;;;;7.67;7.67;;;;;19.28;67.14;102017.25;5003588;28;9058;-68
2023/08/11 00:41:48;;;;;;;;;8.25;8.00;;;;;19.26;67.04;102006.56;5004361;28;8909;-67
2023/08/11 00:44:15;;;;;;;;;8.67;8.67;;;;;19.21;67.13;102000.94;5010349;28;8831;-68
2023/08/11 00:46:43;;;;;;;;;9.25;8.00;;;;;19.18;67.29;101997.81;5010109;28;8927;-67
2023/08/11 00:49:10;;;;;;;;;6.00;6.00;;;;;19.17;67.34;101997.00;5008790;28;8881;-67
2023/08/11 00:51:37;;;;;;;;;7.75;7.50;;;;;19.15;67.42;101996.34;5007131;28;8894;-66
2023/08/11 00:54:06;;;;;;;;;9.00;8.00;;;;;19.15;67.42;101990.91;5009324;28;8944;-67
2023/08/11 00:56:33;;;;;;;;;8.33;8.33;;;;;19.15;67.51;101990.06;5010855;28;8845;-67
2023/08/11 00:59:00;;;;;;;;;8.00;7.00;;;;;19.12;67.46;101988.63;5022325;28;9122;-67
2023/08/11 01:01:27;;;;;;;;;10.00;8.25;;;;;19.09;67.45;101991.81;5009910;28;9116;-67
2023/08/11 01:03:54;;;;;;;;;12.25;12.25;;;;;19.06;67.60;101986.78;5006239;28;8855;-68
2023/08/11 01:06:29;;;;;;;;;11.67;11.00;;;;;19.04;67.75;101980.72;5009663;28;8850;-68
2023/08/11 01:09:07;;;;;;;;;7.75;7.75;;;;;19.03;67.91;101985.34;5010466;28;8915;-67
2023/08/11 01:11:44;;;;;;;;;9.00;8.00;;;;;19.02;67.75;101982.84;5025392;28;8875;-67
2023/08/11 01:14:38;;;;;;;;;9.75;9.75;;;;;19.00;67.86;101972.16;5007486;28;8920;-68
2023/08/11 01:17:12;;;;;;;;;9.00;8.00;;;;;18.98;68.11;101971.53;5010194;28;8965;-68
2023/08/11 01:19:39;;;;;;;;;11.25;10.00;;;;;18.97;67.76;101974.50;4991705;28;8831;-67
2023/08/11 01:22:19;;;;;;;;;9.25;7.50;;;;;18.95;68.09;101958.31;5010831;28;9021;-67
2023/08/11 01:24:47;;;;;;;;;8.50;8.50;;;;;18.95;68.18;101965.66;5008393;28;8857;-67
2023/08/11 01:27:13;;;;;;;;;8.67;7.67;;;;;18.94;68.10;101966.75;5007984;28;8873;-67
2023/08/11 01:29:40;;;;;;;;;15.50;15.00;;;;;18.92;68.16;101975.16;5009823;28;9019;-67
2023/08/11 01:32:08;;;;;;;;;9.75;9.75;;;;;18.91;68.38;101964.44;5008938;28;8849;-67
2023/08/11 01:34:35;;;;;;;;;9.00;9.00;;;;;18.90;68.46;101960.88;5004818;28;9550;-68
2023/08/11 01:37:03;;;;;;;;;8.00;8.00;;;;;18.89;68.40;101970.13;5008409;28;9013;-67
2023/08/11 01:39:31;;;;;;;;;11.00;10.25;;;;;18.89;68.50;101969.31;5006658;28;9120;-67
2023/08/11 01:41:58;;;;;;;;;10.67;10.67;;;;;18.87;68.49;101965.94;5026009;28;8835;-67
2023/08/11 01:44:25;;;;;;;;;11.00;11.00;;;;;18.86;68.64;101964.28;5009523;28;8989;-67
2023/08/11 01:46:55;;;;;;;;;11.00;8.50;;;;;18.85;68.62;101966.19;5024766;28;9069;-66
2023/08/11 01:49:24;;;;;;;;;12.25;9.25;;;;;18.86;68.64;101970.56;5009328;28;8917;-68
2023/08/11 01:51:51;;;;;;;;;10.00;10.00;;;;;18.85;68.57;101958.00;5008382;28;8843;-67
2023/08/11 01:54:19;;;;;;;;;9.67;8.33;;;;;18.81;68.77;101950.47;5011676;28;9044;-67
2023/08/11 01:56:46;;;;;;;;;11.00;11.00;;;;;18.78;68.75;101949.03;5008667;28;8920;-67
2023/08/11 01:59:15;;;;;;;;;9.33;9.33;;;;;18.80;68.62;101956.97;5015333;28;8832;-67
2023/08/11 02:01:42;;;;;;;;;8.00;8.00;;;;;18.81;68.76;101945.84;5005664;28;8955;-67
2023/08/11 02:04:08;;;;;;;;;7.25;7.25;;;;;18.79;68.56;101942.50;5017906;28;8840;-67
2023/08/11 02:06:39;;;;;;;;;8.25;8.00;;;;;18.76;68.74;101946.53;5006578;28;8819;-67
2023/08/11 02:09:08;;;;;;;;;10.50;10.50;;;;;18.75;68.70;101944.00;5025255;28;8839;-67
2023/08/11 02:11:37;;;;;;;;;7.25;7.25;;;;;18.76;68.66;101946.53;5007755;28;9560;-66
2023/08/11 02:14:08;;;;;;;;;6.75;6.75;;;;;18.76;68.57;101938.34;5019552;28;8859;-68
2023/08/11 02:16:35;;;;;;;;;4.50;4.50;;;;;18.76;68.92;101951.97;4989501;28;8871;-67
2023/08/11 02:19:02;;;;;;;;;9.25;7.50;;;;;18.77;68.74;101950.91;5001669;28;8850;-68
2023/08/11 02:21:28;;;;;;;;;7.00;7.00;;;;;18.77;68.64;101944.63;5005913;28;8839;-67
2023/08/11 02:23:55;;;;;;;;;9.50;6.25;;;;;18.73;68.71;101943.41;5010163;28;8819;-67
2023/08/11 02:26:22;;;;;;;;;8.00;8.00;;;;;18.73;68.69;101944.25;5010339;28;8850;-68
2023/08/11 02:28:49;;;;;;;;;7.75;7.75;;;;;18.71;68.87;101949.06;5009342;28;9580;-67
2023/08/11 02:31:16;;;;;;;;;7.50;7.50;;;;;18.69;68.76;101942.16;5006188;28;8847;-67
2023/08/11 02:33:43;;;;;;;;;8.00;7.00;;;;;18.67;68.66;101947.81;5008156;28;8838;-68
2023/08/11 02:36:10;;;;;;;;;11.00;11.00;;;;;18.66;68.87;101948.03;5013672;28;9578;-66
2023/08/11 02:38:36;;;;;;;;;7.75;7.00;;;;;18.66;69.01;101951.59;5007499;28;9004;-67
2023/08/11 02:41:03;;;;;;;;;9.50;9.00;;;;;18.64;68.91;101940.09;5023082;28;8969;-67
2023/08/11 02:43:29;;;;;;;;;7.75;7.00;;;;;18.66;68.95;101939.84;5010461;28;8811;-67
2023/08/11 02:45:56;;;;;;;;;9.33;9.00;;;;;18.67;68.81;101938.78;5008195;28;8823;-67
2023/08/11 02:48:22;;;;;;;;;8.50;8.50;;;;;18.68;69.11;101943.22;5026504;28;9634;-68
2023/08/11 02:50:49;;;;;;;;;8.50;8.50;;;;;18.68;69.00;101941.31;5005970;28;8819;-67
2023/08/11 02:53:15;;;;;;;;;6.00;5.00;;;;;18.66;68.99;101937.13;5008187;28;8901;-67
2023/08/11 02:55:42;;;;;;;;;8.00;7.00;;;;;18.67;69.05;101939.63;5009307;28;8839;-67
2023/08/11 02:58:09;;;;;;;;;9.50;9.50;;;;;18.67;69.09;101931.44;5008883;28;8835;-68
2023/08/11 03:00:36;;;;;;;;;7.50;7.50;;;;;18.65;69.00;101938.19;5023376;28;8839;-67
2023/08/11 03:03:03;;;;;;;;;10.50;8.50;;;;;18.64;69.22;101931.91;5006656;28;8834;-68
2023/08/11 03:05:30;;;;;;;;;8.50;7.50;;;;;18.64;69.29;101937.34;5009891;28;9652;-69
2023/08/11 03:07:57;;;;;;;;;8.25;7.50;;;;;18.64;69.09;101933.81;5007820;28;9554;-68
2023/08/11 03:10:24;;;;;;;;;7.00;7.00;;;;;18.63;69.11;101926.66;5004010;28;8917;-68
2023/08/11 03:12:50;;;;;;;;;7.75;7.50;;;;;18.62;69.10;101930.44;5008590;28;8873;-66
2023/08/11 03:15:18;;;;;;;;;8.50;7.50;;;;;18.60;69.12;101927.94;5007926;28;8869;-68
2023/08/11 03:17:44;;;;;;;;;9.00;9.00;;;;;18.59;69.14;101918.06;5007377;28;8855;-68
2023/08/11 03:20:15;;;;;;;;;9.75;8.00;;;;;18.59;69.25;101920.81;5000970;28;8947;-69
2023/08/11 03:22:44;;;;;;;;;7.00;7.00;;;;;18.58;69.30;101918.31;5007965;28;8856;-68
2023/08/11 03:25:14;;;;;;;;;9.00;9.00;;;;;18.56;69.42;101920.44;4990468;28;8875;-68
2023/08/11 03:27:42;;;;;;;;;9.75;9.50;;;;;18.55;69.44;101916.84;5009139;28;8851;-68
2023/08/11 03:30:13;;;;;;;;;10.75;9.25;;;;;18.54;69.56;101917.91;5008881;28;8851;-69
2023/08/11 03:32:43;;;;;;;;;8.50;7.25;;;;;18.53;69.55;101919.81;5024392;28;8835;-67
2023/08/11 03:35:10;;;;;;;;;9.25;8.00;;;;;18.53;69.62;101916.25;5023753;28;8840;-69
2023/08/11 03:37:38;;;;;;;;;7.50;7.50;;;;;18.54;69.52;101920.63;5007407;28;8863;-69
2023/08/11 03:40:09;;;;;;;;;10.75;10.00;;;;;18.52;69.67;101920.88;5003614;28;8927;-69
2023/08/11 03:42:35;;;;;;;;;11.67;11.00;;;;;18.50;69.65;101922.97;5006436;28;8966;-69
2023/08/11 03:45:02;;;;;;;;;8.50;8.50;;;;;18.48;69.72;101924.25;5007119;28;8930;-68
2023/08/11 03:47:29;;;;;;;;;9.25;9.25;;;;;18.47;69.80;101915.25;5021247;28;8815;-69
2023/08/11 03:49:56;;;;;;;;;9.50;9.50;;;;;18.46;69.79;101910.00;5006867;28;9540;-68
2023/08/11 03:52:24;;;;;;;;;10.00;9.00;;;;;18.43;70.05;101919.47;5007782;28;8862;-68
2023/08/11 03:54:50;;;;;;;;;12.00;11.33;;;;;18.41;70.07;101918.84;5007186;28;8838;-68
2023/08/11 03:57:17;;;;;;;;;11.00;11.00;;;;;18.38;70.11;101915.72;5006591;28;8990;-68
2023/08/11 03:59:43;;;;;;;;;13.00;12.33;;;;;18.34;70.11;101914.47;5007222;28;8835;-68
2023/08/11 04:02:11;;;;;;;;;15.75;14.50;;;;;18.30;70.45;101905.91;5007958;28;8990;-69
2023/08/11 04:04:38;;;;;;;;;11.25;11.00;;;;;18.29;70.67;101906.97;5009800;28;8842;-69
2023/08/11 04:07:05;;;;;;;;;8.67;8.67;;;;;18.27;70.56;101893.56;5023258;28;8835;-67
2023/08/11 04:09:34;;;;;;;;;11.00;11.00;;;;;18.27;70.54;101889.97;5000573;28;8939;-69
2023/08/11 04:12:00;;;;;;;;;13.67;12.33;;;;;18.26;70.90;101885.59;5008593;28;9022;-68
2023/08/11 04:14:27;;;;;;;;;11.75;10.00;;;;;18.26;70.66;101880.97;5005580;28;8993;-68
2023/08/11 04:16:53;;;;;;;;;10.25;9.00;;;;;18.25;70.83;101884.75;5008641;28;8858;-68
2023/08/11 04:19:20;;;;;;;;;12.00;11.67;;;;;18.24;70.93;101883.09;5010469;28;8835;-69
2023/08/11 04:21:47;;;;;;;;;7.67;7.67;;;;;18.24;70.96;101877.66;5000744;28;8924;-69
2023/08/11 04:24:15;;;;;;;;;11.33;10.67;;;;;18.23;70.91;101872.41;5003708;28;8948;-68
2023/08/11 04:26:42;;;;;;;;;14.67;13.00;;;;;18.23;70.81;101877.84;5012272;28;9005;-68
2023/08/11 04:29:10;;;;;;;;;15.00;11.33;;;;;18.22;70.96;101873.47;5013829;28;8994;-68
2023/08/11 04:31:36;;;;;;;;;12.33;12.33;;;;;18.22;71.13;101881.63;5013230;28;9058;-68
2023/08/11 04:34:05;;;;;;;;;13.67;13.67;;;;;18.21;70.93;101869.91;5009052;28;9193;-67
2023/08/11 04:36:32;;;;;;;;;10.00;10.00;;;;;18.22;71.22;101873.47;5011800;28;9143;-68
2023/08/11 04:38:59;;;;;;;;;15.67;14.33;;;;;18.23;71.01;101875.13;5006293;28;9006;-68
2023/08/11 04:41:26;;;;;;;;;15.00;15.00;;;;;18.22;70.99;101868.00;5024256;28;9191;-68
2023/08/11 04:43:53;;;;;;;;;12.67;12.00;;;;;18.22;71.22;101868.84;5009675;28;9109;-68
2023/08/11 04:46:20;;;;;;;;;12.67;12.00;;;;;18.22;71.19;101863.41;5027569;28;9013;-69
2023/08/11 04:48:46;;;;;;;;;14.00;14.00;;;;;18.20;71.10;101861.97;5013134;28;9170;-68
2023/08/11 04:51:13;;;;;;;;;14.00;14.00;;;;;18.18;71.38;101864.88;5012873;28;9208;-68
2023/08/11 04:53:40;;;;;;;;;13.33;13.33;;;;;18.18;71.14;101856.72;5027132;28;9177;-67
2023/08/11 04:56:06;;;;;;;;;11.67;11.67;;;;;18.17;71.35;101863.22;4994771;28;9071;-68
2023/08/11 04:58:33;;;;;;;;;16.33;14.33;;;;;18.18;71.24;101859.44;5011058;28;9025;-68
2023/08/11 05:01:03;;;;;;;;;15.00;15.00;;;;;18.18;71.32;101861.34;5007338;28;9897;-68
2023/08/11 05:03:30;;;;;;;;;14.33;14.00;;;;;18.19;71.19;101857.53;5010151;28;9008;-69
2023/08/11 05:05:57;;;;;;;;;12.33;12.33;;;;;18.20;71.42;101857.34;5011709;28;9324;-68
2023/08/11 05:08:23;;;;;;;;;13.00;13.00;;;;;18.21;71.31;101859.00;5013149;28;9147;-68
2023/08/11 05:10:49;;;;;;;;;14.00;14.00;;;;;18.19;71.24;101858.41;5007361;28;9090;-69
2023/08/11 05:13:16;;;;;;;;;16.67;14.67;;;;;18.18;71.45;101853.16;5009888;28;9748;-67
2023/08/11 05:15:42;;;;;;;;;13.00;12.33;;;;;18.21;71.41;101852.72;5013030;28;9095;-68
2023/08/11 05:18:10;;;;;;;;;16.33;13.00;;;;;18.23;71.46;101850.59;5012965;28;9064;-69
2023/08/11 05:20:36;;;;;;;;;14.00;14.00;;;;;18.24;71.21;101847.66;5009140;28;9228;-68
2023/08/11 05:23:04;;;;;;;;;14.33;13.33;;;;;18.26;71.13;101852.88;5010370;28;9241;-68
2023/08/11 05:25:30;;;;;;;;;13.00;13.00;;;;;18.27;71.13;101857.28;5009028;28;9152;-69
2023/08/11 05:27:57;;;;;;;;;15.33;14.67;;;;;18.27;70.87;101862.72;5011605;28;9173;-68
2023/08/11 05:30:27;;;;;;;;;18.67;17.00;;;;;18.26;71.12;101858.34;5009789;28;9148;-68
2023/08/11 05:32:54;;;;;;;;;17.33;16.00;;;;;18.23;71.36;101856.03;5010313;28;9249;-66
2023/08/11 05:35:21;;;;;;;;;12.67;12.67;;;;;18.23;71.28;101851.47;5019886;28;9265;-65
2023/08/11 05:37:48;;;;;;;;;17.33;15.67;;;;;18.27;71.51;101849.09;5012452;28;9343;-69
2023/08/11 05:40:15;;;;;;;;;19.33;17.00;;;;;18.32;71.21;101860.19;5012175;28;9173;-69
2023/08/11 05:42:42;;;;;;;;;17.00;17.00;;;;;18.34;71.16;101857.25;5011859;28;9014;-69
2023/08/11 05:45:09;;;;;;;;;15.33;14.00;;;;;18.35;71.03;101859.75;5011595;28;9036;-69
2023/08/11 05:47:36;;;;;;;;;19.00;17.67;;;;;18.37;71.20;101857.63;5009632;28;9116;-67
2023/08/11 05:50:03;;;;;;;;;20.33;20.00;;;;;18.38;71.22;101858.47;5007916;28;9169;-69
2023/08/11 05:52:29;;;;;;;;;19.67;19.67;;;;;18.37;70.98;101857.63;5008784;28;9189;-67
2023/08/11 05:54:56;;;;;;;;;18.00;16.00;;;;;18.39;71.08;101862.84;5012211;28;9347;-67
2023/08/11 05:57:22;;;;;;;;;21.00;18.00;;;;;18.39;71.01;101860.13;5010796;28;9198;-68
2023/08/11 05:59:49;;;;;;;;;15.67;15.67;;;;;18.42;71.03;101863.25;5011697;28;9261;-68
2023/08/11 06:02:15;;;;;;;;;15.00;12.00;;;;;18.45;71.07;101870.16;5009908;28;9251;-67
2023/08/11 06:04:44;;;;;;;;;18.33;17.33;;;;;18.44;71.02;101863.88;5008629;28;8996;-68
2023/08/11 06:07:11;;;;;;;;;19.00;18.00;;;;;18.46;70.83;101861.75;5023106;28;9173;-68
2023/08/11 06:09:37;;;;;;;;;21.00;18.33;;;;;18.50;70.98;101864.88;5012043;28;9161;-68
2023/08/11 06:12:04;;;;;;;;;16.67;13.67;;;;;18.53;70.71;101867.16;5009838;28;9231;-67
2023/08/11 06:14:31;;;;;;;;;17.33;17.33;;;;;18.58;70.86;101855.59;5008479;28;9079;-67
2023/08/11 06:16:57;;;;;;;;;13.00;12.33;;;;;18.65;70.52;101859.09;5011258;28;9290;-69
2023/08/11 06:19:25;;;;;;;;;23.00;23.00;;;;;18.68;70.23;101864.94;5006445;28;9190;-69
2023/08/11 06:21:52;;;;;;;;;22.00;20.00;;;;;18.72;70.34;101858.03;5006368;28;9313;-68
2023/08/11 06:24:20;;;;;;;;;19.33;17.67;;;;;18.80;70.08;101866.94;5010783;28;9339;-68
2023/08/11 06:26:48;;;;;;;;;18.67;17.00;;;;;18.84;69.92;101860.84;5029630;28;9068;-68
2023/08/11 06:29:15;;;;;;;;;13.00;13.00;;;;;18.91;69.83;101856.13;5009955;28;9086;-67
2023/08/11 06:31:42;;;;;;;;;18.33;13.67;;;;;18.97;69.58;101868.06;5007028;28;8921;-68
2023/08/11 06:34:09;;;;;;;;;16.33;14.33;;;;;19.00;69.45;101854.81;5010075;28;9084;-68
2023/08/11 06:36:36;;;;;;;;;17.67;17.67;;;;;19.04;69.54;101863.38;5009520;28;9032;-68
2023/08/11 06:39:02;;;;;;;;;16.33;13.67;;;;;19.09;69.56;101868.16;5009499;28;9282;-68
2023/08/11 06:41:29;;;;;;;;;11.75;10.75;;;;;19.10;69.34;101867.94;5009351;28;8987;-68
2023/08/11 06:43:56;;;;;;;;;15.33;15.33;;;;;19.13;69.29;101862.03;5027036;28;8949;-68
2023/08/11 06:46:22;;;;;;;;;17.33;15.33;;;;;19.16;69.28;101861.56;5005801;28;9416;-68
2023/08/11 06:48:49;;;;;;;;;14.67;14.67;;;;;19.18;68.84;101853.16;5006858;28;9070;-67
2023/08/11 06:51:15;;;;;;;;;18.00;17.00;;;;;19.21;68.77;101858.16;5010852;28;9698;-69
2023/08/11 06:53:42;;;;;;;;;15.75;13.50;;;;;19.26;68.84;101852.84;5007778;28;9129;-69
2023/08/11 06:56:08;;;;;;;;;14.50;13.50;;;;;19.30;68.71;101847.78;5013212;28;8873;-68
2023/08/11 06:58:35;;;;;;;;;11.50;10.50;;;;;19.35;68.78;101848.75;5021805;28;8845;-67
2023/08/11 07:01:01;;;;;;;;;11.00;11.00;;;;;19.40;68.68;101848.88;5006922;28;8827;-68
2023/08/11 07:03:28;;;;;;;;;15.33;14.00;;;;;19.43;68.94;101847.59;5008944;28;8862;-68
2023/08/11 07:05:55;;;;;;;;;15.33;15.00;;;;;19.46;68.90;101844.44;5020813;28;8943;-68
2023/08/11 07:08:21;;;;;;;;;14.25;10.75;;;;;19.50;68.52;101851.09;5010770;28;9013;-67
2023/08/11 07:10:48;;;;;;;;;16.00;14.50;;;;;19.57;68.22;101853.72;5012601;28;8841;-67
2023/08/11 07:13:14;;;;;;;;;18.00;17.00;;;;;19.57;67.97;101857.31;5011714;28;9574;-68
2023/08/11 07:15:42;;;;;;;;;13.75;13.00;;;;;19.60;67.96;101856.84;5009983;28;9526;-69
2023/08/11 07:18:12;;;;;;;;;14.50;13.25;;;;;19.63;67.82;101853.69;5010498;28;8851;-68
2023/08/11 07:20:42;;;;;;;;;11.75;11.00;;;;;19.66;67.53;101849.66;5013284;28;8854;-68
2023/08/11 07:23:09;;;;;;;;;13.00;11.50;;;;;19.72;67.45;101852.28;5010759;28;8827;-68
2023/08/11 07:25:36;;;;;;;;;15.75;15.75;;;;;19.75;67.40;101851.00;5007936;28;8831;-67
2023/08/11 07:28:03;;;;;;;;;13.00;13.00;;;;;19.83;67.21;101847.13;5008228;28;8827;-68
2023/08/11 07:30:32;;;;;;;;;8.00;7.25;;;;;19.89;67.18;101857.13;5006774;28;8834;-68
2023/08/11 07:33:00;;;;;;;;;10.00;9.50;;;;;19.90;66.76;101850.59;5008647;28;8851;-68
2023/08/11 07:35:27;;;;;;;;;14.67;14.33;;;;;19.90;66.48;101859.63;5008762;28;8843;-68
2023/08/11 07:37:54;;;;;;;;;9.00;9.00;;;;;19.96;66.38;101860.59;5008825;28;9705;-69
2023/08/11 07:40:21;;;;;;;;;9.00;7.75;;;;;20.04;66.56;101860.28;5009897;28;8833;-68
2023/08/11 07:42:47;;;;;;;;;13.25;11.50;;;;;20.08;66.38;101858.75;5009513;28;8874;-69
2023/08/11 07:45:14;;;;;;;;;12.75;11.50;;;;;20.09;66.13;101857.66;5005044;28;9545;-69
2023/08/11 07:47:40;;;;;;;;;11.00;11.00;;;;;20.14;66.08;101854.25;5002455;28;9628;-68
2023/08/11 07:50:08;;;;;;;;;13.25;12.50;;;;;20.18;65.78;101858.19;5007312;28;8872;-69
2023/08/11 07:52:34;;;;;;;;;14.75;14.00;;;;;20.20;65.92;101854.13;5009869;28;8859;-69
2023/08/11 07:55:01;;;;;;;;;15.25;14.50;;;;;20.24;65.80;101857.25;5009356;28;8830;-68
2023/08/11 07:57:27;;;;;;;;;12.00;10.00;;;;;20.31;66.14;101865.34;4997105;28;8877;-69
2023/08/11 07:59:54;;;;;;;;;12.50;12.50;;;;;20.37;66.01;101862.50;5028439;28;8906;-68
2023/08/11 08:02:20;;;;;;;;;15.75;15.75;;;;;20.39;66.41;101860.38;5013510;28;8854;-70
2023/08/11 08:04:47;;;;;;;;;13.25;11.25;;;;;20.46;66.30;101854.81;4983485;28;8877;-68
2023/08/11 08:07:14;;;;;;;;;10.25;9.00;;;;;20.54;66.35;101859.97;5011277;28;8897;-68
2023/08/11 08:09:40;;;;;;;;;7.75;7.75;;;;;20.61;66.61;101860.66;5012303;28;8835;-68
2023/08/11 08:12:06;;;;;;;;;17.25;17.25;;;;;20.60;66.49;101867.22;5013575;28;8945;-68
2023/08/11 08:14:33;;;;;;;;;11.75;9.75;;;;;20.68;66.43;101871.50;5012948;28;8877;-69
2023/08/11 08:17:01;;;;;;;;;13.75;13.25;;;;;20.72;66.48;101879.00;5012956;28;8851;-68
2023/08/11 08:19:27;;;;;;;;;8.75;7.75;;;;;20.81;66.61;101860.31;5011735;28;8831;-69
2023/08/11 08:21:54;;;;;;;;;12.00;11.50;;;;;20.88;66.57;101865.69;5009758;28;8862;-69
2023/08/11 08:24:20;;;;;;;;;17.00;14.50;;;;;20.86;66.31;101876.03;5011816;28;8847;-69
2023/08/11 08:26:48;;;;;;;;;11.75;11.75;;;;;20.89;66.01;101862.69;5005918;28;8823;-68
2023/08/11 08:29:14;;;;;;;;;8.00;7.50;;;;;20.99;66.26;101862.13;5006535;28;8834;-69
2023/08/11 08:31:41;;;;;;;;;12.75;10.25;;;;;21.10;65.90;101861.25;5013542;28;10536;-68
2023/08/11 08:34:07;;;;;;;;;19.50;18.50;;;;;21.16;66.30;101871.25;5013720;28;8865;-68
2023/08/11 08:36:34;;;;;;;;;19.75;16.50;;;;;21.10;66.27;101869.47;5012435;28;8870;-67
2023/08/11 08:39:00;;;;;;;;;14.75;13.50;;;;;21.12;66.28;101870.09;5012666;28;8854;-68
2023/08/11 08:41:30;;;;;;;;;11.50;9.25;;;;;21.20;66.52;101869.72;5012324;28;8851;-68
2023/08/11 08:44:00;;;;;;;;;12.25;10.50;;;;;21.25;66.56;101869.00;5013536;28;8850;-68
2023/08/11 08:46:30;;;;;;;;;10.00;10.00;;;;;21.30;66.73;101871.84;5011939;28;8824;-67
2023/08/11 08:49:19;;;;;;;;;16.25;14.75;;;;;21.28;66.93;101868.53;5011927;28;8935;-68
2023/08/11 08:51:46;;;;;;;;;14.75;14.00;;;;;21.32;66.93;101863.41;5012290;28;8831;-69
2023/08/11 08:54:13;;;;;;;;;13.75;8.50;;;;;21.37;67.02;101866.28;5011338;28;8866;-68
2023/08/11 08:56:39;;;;;;;;;10.75;10.75;;;;;21.42;66.94;101869.09;5012134;28;8819;-68
2023/08/11 08:59:07;;;;;;;;;15.00;12.25;;;;;21.47;66.25;101864.59;5012098;28;8838;-68
2023/08/11 09:01:35;;;;;;;;;10.00;9.75;;;;;21.50;66.65;101870.63;5011972;28;8969;-68
2023/08/11 09:04:03;;;;;;;;;9.50;9.25;;;;;21.54;66.05;101867.16;5010945;28;8825;-68
2023/08/11 09:06:30;;;;;;;;;8.75;8.75;;;;;21.54;66.55;101866.34;5011577;28;9872;-68
2023/08/11 09:08:59;;;;;;;;;12.50;8.75;;;;;21.56;66.56;101864.22;5011133;28;9406;-69
2023/08/11 09:11:26;;;;;;;;;15.75;14.00;;;;;21.50;66.45;101866.00;5012785;28;9653;-69
2023/08/11 09:13:53;;;;;;;;;10.75;10.75;;;;;21.58;66.32;101873.00;5012223;28;8846;-69
2023/08/11 09:16:23;;;;;;;;;13.50;13.00;;;;;21.59;66.70;101875.50;4995496;28;8835;-69
2023/08/11 09:18:49;;;;;;;;;14.00;14.00;;;;;21.54;66.71;101869.09;5012339;28;8851;-68
2023/08/11 09:21:16;;;;;;;;;12.75;12.75;;;;;21.60;66.85;101870.88;5027748;28;8845;-67
2023/08/11 09:23:43;;;;;;;;;10.25;10.25;;;;;21.65;66.67;101868.22;5010661;28;8839;-67
2023/08/11 09:26:10;;;;;;;;;7.25;7.25;;;;;21.69;66.49;101869.41;5011428;28;8839;-68
2023/08/11 09:28:37;;;;;;;;;13.00;11.75;;;;;21.73;67.05;101871.41;5011814;28;8829;-66
2023/08/11 09:31:04;;;;;;;;;13.25;12.25;;;;;21.79;66.90;101868.75;5010845;28;8831;-67
2023/08/11 09:33:33;;;;;;;;;11.50;11.50;;;;;21.87;66.83;101868.38;5011265;28;9548;-67
2023/08/11 09:36:00;;;;;;;;;7.50;7.00;;;;;21.96;66.61;101858.69;5011114;28;8859;-67
2023/08/11 09:38:28;;;;;;;;;9.75;9.00;;;;;22.05;67.06;101865.44;5027728;28;8870;-67
2023/08/11 09:41:03;;;;;;;;;13.25;12.00;;;;;22.11;66.61;101869.09;5009269;28;8851;-67
2023/08/11 09:43:30;;;;;;;;;15.00;15.00;;;;;22.16;66.40;101867.31;5011753;28;8844;-68
2023/08/11 09:46:01;;;;;;;;;12.25;12.25;;;;;22.19;66.21;101866.81;5010496;28;8861;-67
2023/08/11 09:48:28;;;;;;;;;11.00;11.00;;;;;22.22;66.06;101870.97;5008268;28;8844;-67
2023/08/11 09:50:57;;;;;;;;;10.75;10.75;;;;;22.24;66.07;101865.22;5007823;28;8898;-67
2023/08/11 09:53:24;;;;;;;;;8.00;8.00;;;;;22.30;65.76;101859.59;5004112;28;9567;-67
2023/08/11 09:55:54;;;;;;;;;7.75;7.25;;;;;22.43;65.76;101873.00;5003072;28;8854;-67
2023/08/11 09:58:24;;;;;;;;;10.00;7.00;;;;;22.48;65.59;101866.75;5002264;28;8873;-67
2023/08/11 10:00:52;;;;;;;;;14.00;12.00;;;;;22.45;65.68;101870.00;5007165;28;8849;-67
2023/08/11 10:03:32;;;;;;;;;11.50;11.50;;;;;22.50;65.84;101867.34;5007937;28;8865;-68
2023/08/11 10:06:02;;;;;;;;;10.00;8.75;;;;;22.62;65.77;101872.75;5006793;28;8827;-68
2023/08/11 10:08:29;;;;;;;;;9.75;8.00;;;;;22.72;65.49;101870.16;5010777;28;8870;-67
2023/08/11 10:10:56;;;;;;;;;11.75;11.75;;;;;22.83;65.39;101876.66;5011451;28;8843;-66
2023/08/11 10:13:25;;;;;;;;;10.75;10.00;;;;;22.86;65.18;101870.66;5007788;28;8871;-66
2023/08/11 10:15:54;;;;;;;;;9.00;9.00;;;;;22.92;64.76;101861.44;5006238;28;8848;-67
2023/08/11 10:18:21;;;;;;;;;11.50;9.75;;;;;22.95;64.57;101860.94;5007506;28;8846;-67
2023/08/11 10:20:50;;;;;;;;;12.25;10.00;;;;;22.93;64.41;101857.63;5026330;28;8859;-67
2023/08/11 10:23:17;;;;;;;;;12.00;12.00;;;;;23.03;64.77;101857.75;5009217;28;8837;-67
2023/08/11 10:25:46;;;;;;;;;8.25;8.25;;;;;23.08;64.68;101854.25;5010307;28;8842;-67
2023/08/11 10:28:14;;;;;;;;;7.25;7.25;;;;;23.12;64.54;101847.16;5009057;28;8858;-66
2023/08/11 10:30:40;;;;;;;;;7.25;5.50;;;;;23.17;64.61;101850.84;5010431;28;8831;-66
2023/08/11 10:33:08;;;;;;;;;9.50;9.50;;;;;23.28;64.84;101860.03;5010630;28;8835;-67
2023/08/11 10:35:45;;;;;;;;;10.50;9.75;;;;;23.32;64.42;101858.44;5010009;28;8893;-67
2023/08/11 10:38:12;;;;;;;;;8.75;8.00;;;;;23.32;63.92;101854.84;5018345;28;9566;-67
2023/08/11 10:40:39;;;;;;;;;9.50;9.50;;;;;23.42;64.00;101855.00;5010268;28;8921;-67
2023/08/11 10:43:06;;;;;;;;;9.00;9.00;;;;;23.60;63.77;101851.09;5011459;28;8843;-67
2023/08/11 10:45:34;;;;;;;;;11.00;9.00;;;;;23.61;63.28;101859.06;5009021;28;8853;-66
2023/08/11 10:48:08;;;;;;;;;7.00;7.00;;;;;23.62;63.05;101851.69;5009893;28;8855;-67
2023/08/11 10:50:37;;;;;;;;;6.25;6.25;;;;;23.60;63.11;101848.34;5007036;28;8990;-66
2023/08/11 10:53:22;;;;;;;;;8.50;7.00;;;;;23.61;63.45;101845.31;4988895;28;8864;-67
2023/08/11 10:56:02;;;;;;;;;9.25;9.25;;;;;23.66;63.72;101841.84;5009378;28;8846;-66
2023/08/11 10:58:30;;;;;;;;;9.25;9.25;;;;;23.63;63.86;101845.09;5006122;28;8831;-66
2023/08/11 11:00:58;;;;;;;;;10.00;8.25;;;;;23.63;63.49;101851.41;5009636;28;8851;-67
2023/08/11 11:03:25;;;;;;;;;7.00;6.75;;;;;23.71;63.66;101847.41;5008665;28;8853;-66
2023/08/11 11:05:51;;;;;;;;;8.25;8.00;;;;;23.78;63.39;101844.44;5009616;28;8843;-66
2023/08/11 11:08:18;;;;;;;;;11.00;11.00;;;;;23.81;63.13;101846.69;5010639;28;8903;-67
2023/08/11 11:10:44;;;;;;;;;11.50;10.00;;;;;23.85;62.93;101848.66;5014284;28;8854;-67
2023/08/11 11:13:16;;;;;;;;;9.25;9.25;;;;;24.00;62.87;101850.72;5010757;28;8815;-67
2023/08/11 11:15:43;;;;;;;;;8.50;8.50;;;;;24.10;62.36;101848.06;5007685;28;8835;-67
2023/08/11 11:18:09;;;;;;;;;6.00;6.00;;;;;24.13;61.85;101849.47;5009610;28;9621;-66
2023/08/11 11:20:37;;;;;;;;;11.00;10.00;;;;;24.13;61.82;101857.72;5009549;28;8855;-67
2023/08/11 11:23:05;;;;;;;;;7.75;7.75;;;;;24.23;61.66;101851.50;5009852;28;8848;-66
2023/08/11 11:25:31;;;;;;;;;10.50;9.00;;;;;24.33;61.18;101848.84;5009933;28;8803;-66